Search for airport 
image banner adimage banner adimage banner ad
image banner ad

CA78 - City Hall

Located in Riverside, United States

ICAO - CA78, IATA -

Data provided by Airmate  

General information

Coordinates: N33°58'50" W117°22'33"
Elevation is 977 feet MSL.
Magnetic variation is 14° East
View others Airports in California

Operational data

Special qualification required
Current time UTC:
Current local time:
Weather at : KRAL - Riverside Muni ( 7 km )
METAR: KRAL 292153Z 27013KT 10SM CLR 37/13 A2985 RMK AO2 SLP090 T03670128
View NOTAMs / SUP AIP / TFR affecting this airport [VIEW]
Communications frequencies: [VIEW]

Runways:

Airport contact information

Address: Riverside United States

Satellite view of CA78